sensor_id;sensor_type;location;lat;lon;timestamp;pressure;altitude;pressure_sealevel;temperature;humidity
78845;BME280;68195;50.854;2.860;2023-12-04T00:00:04;100871.56;;;1.62;100.00
78845;BME280;68195;50.854;2.860;2023-12-04T00:02:32;100860.41;;;1.63;100.00
78845;BME280;68195;50.854;2.860;2023-12-04T00:04:58;100861.09;;;1.76;100.00
78845;BME280;68195;50.854;2.860;2023-12-04T00:07:23;100847.41;;;1.73;100.00
78845;BME280;68195;50.854;2.860;2023-12-04T00:09:51;100848.22;;;1.78;100.00
78845;BME280;68195;50.854;2.860;2023-12-04T00:12:18;100855.91;;;1.81;100.00
78845;BME280;68195;50.854;2.860;2023-12-04T00:14:47;100832.84;;;1.70;100.00
78845;BME280;68195;50.854;2.860;2023-12-04T00:17:12;100838.88;;;1.71;100.00
78845;BME280;68195;50.854;2.860;2023-12-04T00:19:38;100796.09;;;1.60;100.00
78845;BME280;68195;50.854;2.860;2023-12-04T00:22:03;100812.19;;;1.75;100.00
78845;BME280;68195;50.854;2.860;2023-12-04T00:24:29;100804.53;;;1.70;100.00
78845;BME280;68195;50.854;2.860;2023-12-04T00:26:54;100814.81;;;1.73;100.00
78845;BME280;68195;50.854;2.860;2023-12-04T00:29:20;100813.91;;;1.77;100.00
78845;BME280;68195;50.854;2.860;2023-12-04T00:31:45;100775.56;;;1.53;100.00
78845;BME280;68195;50.854;2.860;2023-12-04T00:34:10;100808.78;;;1.73;100.00
78845;BME280;68195;50.854;2.860;2023-12-04T00:36:37;100789.16;;;1.64;100.00
78845;BME280;68195;50.854;2.860;2023-12-04T00:39:02;100791.72;;;1.66;100.00
78845;BME280;68195;50.854;2.860;2023-12-04T00:41:30;100772.84;;;1.67;100.00
78845;BME280;68195;50.854;2.860;2023-12-04T00:43:57;100780.47;;;1.73;100.00
78845;BME280;68195;50.854;2.860;2023-12-04T00:46:22;100783.03;;;1.73;100.00
78845;BME280;68195;50.854;2.860;2023-12-04T00:48:48;100783.88;;;1.75;100.00
78845;BME280;68195;50.854;2.860;2023-12-04T00:51:16;100758.31;;;1.62;100.00
78845;BME280;68195;50.854;2.860;2023-12-04T00:53:41;100757.38;;;1.68;100.00
78845;BME280;68195;50.854;2.860;2023-12-04T00:56:07;100747.97;;;1.66;100.00
78845;BME280;68195;50.854;2.860;2023-12-04T00:58:35;100754.78;;;1.71;100.00
78845;BME280;68195;50.854;2.860;2023-12-04T01:01:00;100759.84;;;1.76;100.00
78845;BME280;68195;50.854;2.860;2023-12-04T01:03:28;100759.81;;;1.79;100.00
78845;BME280;68195;50.854;2.860;2023-12-04T01:05:53;100730.91;;;1.60;100.00
78845;BME280;68195;50.854;2.860;2023-12-04T01:08:19;100741.91;;;1.70;100.00
78845;BME280;68195;50.854;2.860;2023-12-04T01:10:47;100728.31;;;1.60;100.00
78845;BME280;68195;50.854;2.860;2023-12-04T01:13:12;100728.19;;;1.71;100.00
78845;BME280;68195;50.854;2.860;2023-12-04T01:15:40;100733.34;;;1.71;100.00
78845;BME280;68195;50.854;2.860;2023-12-04T01:18:10;100722.97;;;1.75;100.00
78845;BME280;68195;50.854;2.860;2023-12-04T01:20:37;100697.41;;;1.61;100.00
78845;BME280;68195;50.854;2.860;2023-12-04T01:23:03;100703.34;;;1.67;100.00
78845;BME280;68195;50.854;2.860;2023-12-04T01:25:31;100688.13;;;1.51;100.00
78845;BME280;68195;50.854;2.860;2023-12-04T01:27:56;100722.09;;;1.75;100.00
78845;BME280;68195;50.854;2.860;2023-12-04T01:30:21;100683.75;;;1.58;100.00
78845;BME280;68195;50.854;2.860;2023-12-04T01:32:47;100698.06;;;1.76;100.00
78845;BME280;68195;50.854;2.860;2023-12-04T01:35:12;100706.59;;;1.79;100.00
78845;BME280;68195;50.854;2.860;2023-12-04T01:37:40;100709.19;;;1.76;100.00
78845;BME280;68195;50.854;2.860;2023-12-04T01:40:06;100676.81;;;1.61;100.00
78845;BME280;68195;50.854;2.860;2023-12-04T01:42:32;100682.56;;;1.79;100.00
78845;BME280;68195;50.854;2.860;2023-12-04T01:44:57;100684.28;;;1.80;100.00
78845;BME280;68195;50.854;2.860;2023-12-04T01:47:23;100678.28;;;1.78;100.00
78845;BME280;68195;50.854;2.860;2023-12-04T01:49:49;100686.84;;;1.80;100.00
78845;BME280;68195;50.854;2.860;2023-12-04T01:52:18;100673.16;;;1.78;100.00
78845;BME280;68195;50.854;2.860;2023-12-04T01:54:43;100661.19;;;1.74;100.00
78845;BME280;68195;50.854;2.860;2023-12-04T01:57:09;100662.88;;;1.76;100.00
78845;BME280;68195;50.854;2.860;2023-12-04T01:59:35;100666.19;;;1.83;100.00
78845;BME280;68195;50.854;2.860;2023-12-04T02:02:01;100653.41;;;1.77;100.00
78845;BME280;68195;50.854;2.860;2023-12-04T02:04:27;100657.63;;;1.82;100.00
78845;BME280;68195;50.854;2.860;2023-12-04T02:06:55;100632.84;;;1.75;100.00
78845;BME280;68195;50.854;2.860;2023-12-04T02:09:20;100632.03;;;1.72;100.00
78845;BME280;68195;50.854;2.860;2023-12-04T02:11:50;100625.16;;;1.74;100.00
78845;BME280;68195;50.854;2.860;2023-12-04T02:14:19;100632.88;;;1.74;100.00
78845;BME280;68195;50.854;2.860;2023-12-04T02:16:48;100637.00;;;1.84;100.00
78845;BME280;68195;50.854;2.860;2023-12-04T02:19:14;100608.13;;;1.63;100.00
78845;BME280;68195;50.854;2.860;2023-12-04T02:21:40;100643.84;;;1.83;100.00
78845;BME280;68195;50.854;2.860;2023-12-04T02:24:05;100641.28;;;1.83;100.00
78845;BME280;68195;50.854;2.860;2023-12-04T02:26:39;100620.09;;;1.68;100.00
78845;BME280;68195;50.854;2.860;2023-12-04T02:29:08;100608.94;;;1.67;100.00
78845;BME280;68195;50.854;2.860;2023-12-04T02:31:39;100637.03;;;1.81;100.00
78845;BME280;68195;50.854;2.860;2023-12-04T02:34:06;100646.34;;;1.90;100.00
78845;BME280;68195;50.854;2.860;2023-12-04T02:36:33;100612.19;;;1.78;100.00
78845;BME280;68195;50.854;2.860;2023-12-04T02:38:59;100621.47;;;1.89;100.00
78845;BME280;68195;50.854;2.860;2023-12-04T02:41:25;100596.75;;;1.80;100.00
78845;BME280;68195;50.854;2.860;2023-12-04T02:43:50;100606.00;;;1.90;100.00
78845;BME280;68195;50.854;2.860;2023-12-04T02:46:18;100602.72;;;1.82;100.00
78845;BME280;68195;50.854;2.860;2023-12-04T02:48:46;100582.13;;;1.80;100.00
78845;BME280;68195;50.854;2.860;2023-12-04T02:51:14;100566.69;;;1.79;100.00
78845;BME280;68195;50.854;2.860;2023-12-04T02:53:39;100585.34;;;1.93;100.00
78845;BME280;68195;50.854;2.860;2023-12-04T02:56:05;100581.09;;;1.91;100.00
78845;BME280;68195;50.854;2.860;2023-12-04T02:58:31;100554.75;;;1.75;100.00
78845;BME280;68195;50.854;2.860;2023-12-04T03:01:01;100580.28;;;1.90;100.00
78845;BME280;68195;50.854;2.860;2023-12-04T03:03:27;100561.56;;;1.79;100.00
78845;BME280;68195;50.854;2.860;2023-12-04T03:05:52;100582.72;;;1.96;100.00
78845;BME280;68195;50.854;2.860;2023-12-04T03:08:17;100570.75;;;1.92;100.00
78845;BME280;68195;50.854;2.860;2023-12-04T03:10:45;100550.38;;;1.80;100.00
78845;BME280;68195;50.854;2.860;2023-12-04T03:13:13;100568.16;;;1.94;100.00
78845;BME280;68195;50.854;2.860;2023-12-04T03:15:39;100534.97;;;1.78;100.00
78845;BME280;68195;50.854;2.860;2023-12-04T03:18:06;100560.50;;;1.91;100.00
78845;BME280;68195;50.854;2.860;2023-12-04T03:20:32;100557.88;;;1.94;100.00
78845;BME280;68195;50.854;2.860;2023-12-04T03:22:58;100557.00;;;1.95;99.87
78845;BME280;68195;50.854;2.860;2023-12-04T03:25:25;100542.44;;;1.92;99.90
78845;BME280;68195;50.854;2.860;2023-12-04T03:27:51;100533.91;;;1.90;100.00
78845;BME280;68195;50.854;2.860;2023-12-04T03:30:16;100532.13;;;1.92;99.18
78845;BME280;68195;50.854;2.860;2023-12-04T03:32:45;100516.72;;;1.91;99.93
78845;BME280;68195;50.854;2.860;2023-12-04T03:35:10;100505.69;;;1.84;99.83
78845;BME280;68195;50.854;2.860;2023-12-04T03:37:36;100519.06;;;2.03;99.66
78845;BME280;68195;50.854;2.860;2023-12-04T03:40:02;100513.16;;;1.98;99.68
78845;BME280;68195;50.854;2.860;2023-12-04T03:42:30;100514.00;;;1.98;99.28
78845;BME280;68195;50.854;2.860;2023-12-04T03:44:57;100520.84;;;2.01;99.77
78845;BME280;68195;50.854;2.860;2023-12-04T03:47:25;100503.88;;;1.89;99.00
78845;BME280;68195;50.854;2.860;2023-12-04T03:49:50;100526.72;;;2.08;99.12
78845;BME280;68195;50.854;2.860;2023-12-04T03:52:20;100517.41;;;2.00;99.13
78845;BME280;68195;50.854;2.860;2023-12-04T03:54:45;100512.34;;;1.94;98.68
78845;BME280;68195;50.854;2.860;2023-12-04T03:57:13;100532.75;;;2.07;98.61
78845;BME280;68195;50.854;2.860;2023-12-04T03:59:39;100515.63;;;2.04;98.95
78845;BME280;68195;50.854;2.860;2023-12-04T04:02:07;100512.31;;;1.99;98.76
78845;BME280;68195;50.854;2.860;2023-12-04T04:04:32;100515.56;;;2.07;98.43
78845;BME280;68195;50.854;2.860;2023-12-04T04:06:57;100525.81;;;2.12;98.18
78845;BME280;68195;50.854;2.860;2023-12-04T04:09:23;100507.06;;;2.03;97.23
78845;BME280;68195;50.854;2.860;2023-12-04T04:11:48;100513.78;;;2.11;97.91
78845;BME280;68195;50.854;2.860;2023-12-04T04:14:13;100525.03;;;2.07;97.34
78845;BME280;68195;50.854;2.860;2023-12-04T04:16:40;100512.22;;;2.02;97.16
78845;BME280;68195;50.854;2.860;2023-12-04T04:19:05;100524.09;;;2.09;97.25
78845;BME280;68195;50.854;2.860;2023-12-04T04:21:33;100524.88;;;2.14;97.37
78845;BME280;68195;50.854;2.860;2023-12-04T04:23:59;100525.66;;;2.18;98.03
78845;BME280;68195;50.854;2.860;2023-12-04T04:26:24;100513.69;;;2.15;97.58
78845;BME280;68195;50.854;2.860;2023-12-04T04:28:50;100495.78;;;2.09;97.81
78845;BME280;68195;50.854;2.860;2023-12-04T04:31:17;100514.50;;;2.19;98.30
78845;BME280;68195;50.854;2.860;2023-12-04T04:33:43;100491.41;;;2.13;98.66
78845;BME280;68195;50.854;2.860;2023-12-04T04:36:09;100470.94;;;2.05;98.66
78845;BME280;68195;50.854;2.860;2023-12-04T04:38:35;100477.59;;;2.18;100.00
78845;BME280;68195;50.854;2.860;2023-12-04T04:41:03;100465.69;;;2.11;100.00
78845;BME280;68195;50.854;2.860;2023-12-04T04:43:29;100474.91;;;2.23;100.00
78845;BME280;68195;50.854;2.860;2023-12-04T04:45:54;100439.91;;;2.13;100.00
78845;BME280;68195;50.854;2.860;2023-12-04T04:48:19;100454.31;;;2.23;100.00
78845;BME280;68195;50.854;2.860;2023-12-04T04:50:45;100426.09;;;2.15;100.00
78845;BME280;68195;50.854;2.860;2023-12-04T04:53:10;100418.34;;;2.17;100.00
78845;BME280;68195;50.854;2.860;2023-12-04T04:55:35;100418.28;;;2.20;100.00
78845;BME280;68195;50.854;2.860;2023-12-04T04:58:03;100435.50;;;2.18;100.00
78845;BME280;68195;50.854;2.860;2023-12-04T05:00:29;100390.34;;;2.01;100.00
78845;BME280;68195;50.854;2.860;2023-12-04T05:02:56;100407.13;;;2.19;100.00
78845;BME280;68195;50.854;2.860;2023-12-04T05:05:22;100415.69;;;2.21;100.00
78845;BME280;68195;50.854;2.860;2023-12-04T05:07:47;100429.38;;;2.23;100.00
78845;BME280;68195;50.854;2.860;2023-12-04T05:10:12;100439.72;;;2.22;100.00
78845;BME280;68195;50.854;2.860;2023-12-04T05:12:38;100423.69;;;2.08;100.00
78845;BME280;68195;50.854;2.860;2023-12-04T05:15:06;100423.63;;;2.11;100.00
78845;BME280;68195;50.854;2.860;2023-12-04T05:17:31;100403.25;;;1.98;100.00
78845;BME280;68195;50.854;2.860;2023-12-04T05:19:59;100419.50;;;2.03;98.78
78845;BME280;68195;50.854;2.860;2023-12-04T05:22:27;100399.94;;;1.93;99.46
78845;BME280;68195;50.854;2.860;2023-12-04T05:24:52;100405.78;;;2.01;98.71
78845;BME280;68195;50.854;2.860;2023-12-04T05:27:18;100415.06;;;2.09;98.41
78845;BME280;68195;50.854;2.860;2023-12-04T05:29:43;100404.84;;;2.05;99.07
78845;BME280;68195;50.854;2.860;2023-12-04T05:32:08;100366.59;;;1.87;99.35
78845;BME280;68195;50.854;2.860;2023-12-04T05:34:36;100395.31;;;2.09;100.00
78845;BME280;68195;50.854;2.860;2023-12-04T05:37:02;100396.09;;;2.14;98.09
78845;BME280;68195;50.854;2.860;2023-12-04T05:39:27;100358.63;;;1.99;98.54
78845;BME280;68195;50.854;2.860;2023-12-04T05:41:52;100382.41;;;2.11;96.70
78845;BME280;68195;50.854;2.860;2023-12-04T05:44:18;100355.19;;;1.99;97.00
78845;BME280;68195;50.854;2.860;2023-12-04T05:46:43;100356.78;;;2.04;97.00
78845;BME280;68195;50.854;2.860;2023-12-04T05:49:11;100350.81;;;2.02;97.01
78845;BME280;68195;50.854;2.860;2023-12-04T05:51:36;100325.25;;;1.95;97.16
78845;BME280;68195;50.854;2.860;2023-12-04T05:54:02;100355.03;;;2.05;96.50
78845;BME280;68195;50.854;2.860;2023-12-04T05:56:27;100341.44;;;1.98;96.65
78845;BME280;68195;50.854;2.860;2023-12-04T05:58:52;100343.03;;;2.05;96.47
78845;BME280;68195;50.854;2.860;2023-12-04T06:01:18;100339.47;;;2.11;97.44
78845;BME280;68195;50.854;2.860;2023-12-04T06:03:48;100360.97;;;2.10;98.20
78845;BME280;68195;50.854;2.860;2023-12-04T06:06:16;100348.94;;;2.09;100.00
78845;BME280;68195;50.854;2.860;2023-12-04T06:08:41;100361.88;;;2.08;100.00
78845;BME280;68195;50.854;2.860;2023-12-04T06:11:09;100370.47;;;2.07;99.42
78845;BME280;68195;50.854;2.860;2023-12-04T06:13:37;100354.19;;;2.06;99.19
78845;BME280;68195;50.854;2.860;2023-12-04T06:16:03;100349.06;;;2.03;99.24
78845;BME280;68195;50.854;2.860;2023-12-04T06:18:30;100351.72;;;2.00;99.96
78845;BME280;68195;50.854;2.860;2023-12-04T06:20:56;100359.38;;;2.03;100.00
78845;BME280;68195;50.854;2.860;2023-12-04T06:23:26;100333.81;;;1.95;99.80
78845;BME280;68195;50.854;2.860;2023-12-04T06:25:52;100346.56;;;2.01;100.00
78845;BME280;68195;50.854;2.860;2023-12-04T06:28:17;100327.84;;;1.93;100.00
78845;BME280;68195;50.854;2.860;2023-12-04T06:30:43;100321.78;;;1.96;100.00
78845;BME280;68195;50.854;2.860;2023-12-04T06:33:09;100308.09;;;1.92;100.00
78845;BME280;68195;50.854;2.860;2023-12-04T06:35:41;100308.91;;;1.94;100.00
78845;BME280;68195;50.854;2.860;2023-12-04T06:38:07;100294.44;;;1.90;100.00
78845;BME280;68195;50.854;2.860;2023-12-04T06:40:34;100294.25;;;1.98;100.00
78845;BME280;68195;50.854;2.860;2023-12-04T06:43:00;100270.47;;;1.87;100.00
78845;BME280;68195;50.854;2.860;2023-12-04T06:45:28;100263.63;;;1.85;100.00
78845;BME280;68195;50.854;2.860;2023-12-04T06:47:54;100264.31;;;1.92;100.00
78845;BME280;68195;50.854;2.860;2023-12-04T06:50:22;100240.50;;;1.84;100.00
78845;BME280;68195;50.854;2.860;2023-12-04T06:52:47;100248.25;;;1.82;100.00
78845;BME280;68195;50.854;2.860;2023-12-04T06:55:12;100209.16;;;1.65;100.00
78845;BME280;68195;50.854;2.860;2023-12-04T06:57:38;100240.41;;;1.87;100.00
78845;BME280;68195;50.854;2.860;2023-12-04T07:00:07;100227.78;;;1.76;100.00
78845;BME280;68195;50.854;2.860;2023-12-04T07:02:39;100225.91;;;1.83;100.00
78845;BME280;68195;50.854;2.860;2023-12-04T07:05:05;100222.53;;;1.81;100.00
78845;BME280;68195;50.854;2.860;2023-12-04T07:07:33;100228.44;;;1.86;100.00
78845;BME280;68195;50.854;2.860;2023-12-04T07:09:58;100219.00;;;1.85;100.00
78845;BME280;68195;50.854;2.860;2023-12-04T07:12:24;100194.53;;;1.67;100.00
78845;BME280;68195;50.854;2.860;2023-12-04T07:14:52;100212.31;;;1.78;100.00
78845;BME280;68195;50.854;2.860;2023-12-04T07:17:17;100196.88;;;1.76;100.00
78845;BME280;68195;50.854;2.860;2023-12-04T07:19:43;100198.50;;;1.80;100.00
78845;BME280;68195;50.854;2.860;2023-12-04T07:22:08;100180.66;;;1.73;100.00
78845;BME280;68195;50.854;2.860;2023-12-04T07:24:34;100191.75;;;1.76;100.00
78845;BME280;68195;50.854;2.860;2023-12-04T07:27:01;100175.72;;;1.63;100.00
78845;BME280;68195;50.854;2.860;2023-12-04T07:29:27;100167.72;;;1.76;100.00
78845;BME280;68195;50.854;2.860;2023-12-04T07:31:54;100167.84;;;1.71;100.00
78845;BME280;68195;50.854;2.860;2023-12-04T07:34:20;100160.16;;;1.70;100.00
78845;BME280;68195;50.854;2.860;2023-12-04T07:36:48;100184.72;;;1.83;100.00
78845;BME280;68195;50.854;2.860;2023-12-04T07:39:15;100169.38;;;1.78;100.00
78845;BME280;68195;50.854;2.860;2023-12-04T07:41:41;100181.41;;;1.78;100.00
78845;BME280;68195;50.854;2.860;2023-12-04T07:44:09;100166.91;;;1.74;100.00
78845;BME280;68195;50.854;2.860;2023-12-04T07:46:34;100166.00;;;1.76;100.00
78845;BME280;68195;50.854;2.860;2023-12-04T07:49:02;100161.78;;;1.74;100.00
78845;BME280;68195;50.854;2.860;2023-12-04T07:51:29;100172.84;;;1.77;100.00
78845;BME280;68195;50.854;2.860;2023-12-04T07:53:54;100178.75;;;1.81;100.00
78845;BME280;68195;50.854;2.860;2023-12-04T07:56:22;100166.09;;;1.72;100.00
78845;BME280;68195;50.854;2.860;2023-12-04T07:58:49;100170.31;;;1.76;100.00
78845;BME280;68195;50.854;2.860;2023-12-04T08:01:18;100171.97;;;1.77;100.00
78845;BME280;68195;50.854;2.860;2023-12-04T08:03:43;100157.44;;;1.76;100.00
78845;BME280;68195;50.854;2.860;2023-12-04T08:06:09;100145.41;;;1.76;100.00
78845;BME280;68195;50.854;2.860;2023-12-04T08:08:34;100130.22;;;1.64;100.00
78845;BME280;68195;50.854;2.860;2023-12-04T08:11:00;100139.47;;;1.73;100.00
78845;BME280;68195;50.854;2.860;2023-12-04T08:13:28;100137.72;;;1.75;100.00
78845;BME280;68195;50.854;2.860;2023-12-04T08:15:55;100138.53;;;1.77;100.00
78845;BME280;68195;50.854;2.860;2023-12-04T08:18:21;100146.88;;;1.87;100.00
78845;BME280;68195;50.854;2.860;2023-12-04T08:20:46;100137.50;;;1.84;100.00
78845;BME280;68195;50.854;2.860;2023-12-04T08:23:14;100140.81;;;1.89;100.00
78845;BME280;68195;50.854;2.860;2023-12-04T08:25:42;100129.78;;;1.84;100.00
78845;BME280;68195;50.854;2.860;2023-12-04T08:28:07;100156.03;;;1.98;100.00
78845;BME280;68195;50.854;2.860;2023-12-04T08:30:36;100146.53;;;2.00;100.00
78845;BME280;68195;50.854;2.860;2023-12-04T08:33:02;100109.22;;;1.82;100.00
78845;BME280;68195;50.854;2.860;2023-12-04T08:35:27;100141.41;;;2.00;100.00
78845;BME280;68195;50.854;2.860;2023-12-04T08:37:55;100139.63;;;2.02;100.00
78845;BME280;68195;50.854;2.860;2023-12-04T08:40:20;100125.13;;;1.98;100.00
78845;BME280;68195;50.854;2.860;2023-12-04T08:42:48;100121.59;;;2.02;100.00
78845;BME280;68195;50.854;2.860;2023-12-04T08:45:13;100115.63;;;2.00;100.00
78845;BME280;68195;50.854;2.860;2023-12-04T08:47:39;100110.56;;;1.99;100.00
78845;BME280;68195;50.854;2.860;2023-12-04T08:50:05;100129.91;;;2.14;100.00
78845;BME280;68195;50.854;2.860;2023-12-04T08:52:31;100115.38;;;2.11;100.00
78845;BME280;68195;50.854;2.860;2023-12-04T08:54:56;100112.78;;;2.11;100.00
78845;BME280;68195;50.854;2.860;2023-12-04T08:57:24;100117.81;;;2.16;100.00
78845;BME280;68195;50.854;2.860;2023-12-04T08:59:49;100097.47;;;2.07;100.00
78845;BME280;68195;50.854;2.860;2023-12-04T09:02:17;100094.81;;;2.10;100.00
78845;BME280;68195;50.854;2.860;2023-12-04T09:04:42;100102.47;;;2.13;100.00
78845;BME280;68195;50.854;2.860;2023-12-04T09:07:08;100114.38;;;2.17;100.00
78845;BME280;68195;50.854;2.860;2023-12-04T09:09:33;100113.47;;;2.18;100.00
78845;BME280;68195;50.854;2.860;2023-12-04T09:12:00;100093.28;;;2.02;100.00
78845;BME280;68195;50.854;2.860;2023-12-04T09:14:25;100097.28;;;2.14;100.00
78845;BME280;68195;50.854;2.860;2023-12-04T09:16:57;100078.72;;;2.01;100.00
78845;BME280;68195;50.854;2.860;2023-12-04T09:19:23;100095.44;;;2.18;100.00
78845;BME280;68195;50.854;2.860;2023-12-04T09:21:50;100081.22;;;2.03;100.00
78845;BME280;68195;50.854;2.860;2023-12-04T09:24:16;100072.41;;;2.13;100.00
78845;BME280;68195;50.854;2.860;2023-12-04T09:26:41;100089.41;;;2.20;100.00
78845;BME280;68195;50.854;2.860;2023-12-04T09:29:11;100079.25;;;2.14;100.00
78845;BME280;68195;50.854;2.860;2023-12-04T09:31:37;100071.53;;;2.14;100.00
78845;BME280;68195;50.854;2.860;2023-12-04T09:34:03;100054.50;;;2.09;100.00
78845;BME280;68195;50.854;2.860;2023-12-04T09:36:30;100079.19;;;2.16;100.00
78845;BME280;68195;50.854;2.860;2023-12-04T09:38:58;100058.44;;;2.22;100.00
78845;BME280;68195;50.854;2.860;2023-12-04T09:41:26;100054.22;;;2.19;100.00
78845;BME280;68195;50.854;2.860;2023-12-04T09:43:52;100076.16;;;2.34;100.00
78845;BME280;68195;50.854;2.860;2023-12-04T09:46:18;100071.81;;;2.35;100.00
78845;BME280;68195;50.854;2.860;2023-12-04T09:48:46;100052.16;;;2.32;100.00
78845;BME280;68195;50.854;2.860;2023-12-04T09:51:12;100073.53;;;2.36;100.00
78845;BME280;68195;50.854;2.860;2023-12-04T09:53:40;100071.66;;;2.41;100.00
78845;BME280;68195;50.854;2.860;2023-12-04T09:56:07;100071.75;;;2.38;100.00
78845;BME280;68195;50.854;2.860;2023-12-04T09:58:34;100067.50;;;2.35;100.00
78845;BME280;68195;50.854;2.860;2023-12-04T10:01:02;100069.22;;;2.36;100.00
78845;BME280;68195;50.854;2.860;2023-12-04T10:03:29;100057.44;;;2.28;100.00
78845;BME280;68195;50.854;2.860;2023-12-04T10:05:55;100054.81;;;2.29;100.00
78845;BME280;68195;50.854;2.860;2023-12-04T10:08:23;100053.78;;;2.35;100.00
78845;BME280;68195;50.854;2.860;2023-12-04T10:10:51;100016.66;;;2.11;100.00
78845;BME280;68195;50.854;2.860;2023-12-04T10:13:18;100052.94;;;2.34;100.00
78845;BME280;68195;50.854;2.860;2023-12-04T10:15:48;100042.69;;;2.33;100.00
78845;BME280;68195;50.854;2.860;2023-12-04T10:18:29;100047.53;;;2.43;100.00
78845;BME280;68195;50.854;2.860;2023-12-04T10:21:01;100040.66;;;2.44;100.00
78845;BME280;68195;50.854;2.860;2023-12-04T10:23:40;100008.38;;;2.31;100.00
78845;BME280;68195;50.854;2.860;2023-12-04T10:26:08;100020.78;;;2.47;100.00
78845;BME280;68195;50.854;2.860;2023-12-04T10:28:36;100005.47;;;2.43;100.00
78845;BME280;68195;50.854;2.860;2023-12-04T10:31:04;99978.41;;;2.28;100.00
78845;BME280;68195;50.854;2.860;2023-12-04T10:33:32;99995.28;;;2.38;100.00
78845;BME280;68195;50.854;2.860;2023-12-04T10:35:57;99989.06;;;2.45;100.00
78845;BME280;68195;50.854;2.860;2023-12-04T10:38:25;99963.53;;;2.38;100.00
78845;BME280;68195;50.854;2.860;2023-12-04T10:40:52;99979.59;;;2.46;100.00
78845;BME280;68195;50.854;2.860;2023-12-04T10:43:23;99994.75;;;2.57;100.00
78845;BME280;68195;50.854;2.860;2023-12-04T10:45:50;99975.22;;;2.50;100.00
78845;BME280;68195;50.854;2.860;2023-12-04T10:48:17;99976.97;;;2.49;100.00
78845;BME280;68195;50.854;2.860;2023-12-04T10:50:45;99968.97;;;2.57;100.00
78845;BME280;68195;50.854;2.860;2023-12-04T10:53:14;99977.69;;;2.53;100.00
78845;BME280;68195;50.854;2.860;2023-12-04T10:55:43;99950.25;;;2.52;100.00
78845;BME280;68195;50.854;2.860;2023-12-04T10:58:13;99955.13;;;2.61;100.00
78845;BME280;68195;50.854;2.860;2023-12-04T11:00:48;99948.09;;;2.66;100.00
78845;BME280;68195;50.854;2.860;2023-12-04T11:03:25;99938.72;;;2.63;100.00
78845;BME280;68195;50.854;2.860;2023-12-04T11:06:00;99920.00;;;2.57;100.00
78845;BME280;68195;50.854;2.860;2023-12-04T11:08:28;99898.69;;;2.52;100.00
78845;BME280;68195;50.854;2.860;2023-12-04T11:11:05;99928.88;;;2.76;100.00
78845;BME280;68195;50.854;2.860;2023-12-04T11:13:37;99928.06;;;2.74;100.00
78845;BME280;68195;50.854;2.860;2023-12-04T11:16:12;99908.34;;;2.73;100.00
78845;BME280;68195;50.854;2.860;2023-12-04T11:18:43;99921.78;;;2.83;100.00
78845;BME280;68195;50.854;2.860;2023-12-04T11:21:10;99894.56;;;2.74;100.00
78845;BME280;68195;50.854;2.860;2023-12-04T11:23:37;99904.50;;;2.86;100.00
78845;BME280;68195;50.854;2.860;2023-12-04T11:26:04;99885.75;;;2.81;100.00
78845;BME280;68195;50.854;2.860;2023-12-04T11:28:31;99899.19;;;2.91;100.00
78845;BME280;68195;50.854;2.860;2023-12-04T11:30:58;99890.50;;;2.94;100.00
78845;BME280;68195;50.854;2.860;2023-12-04T11:33:24;99829.59;;;2.63;100.00
78845;BME280;68195;50.854;2.860;2023-12-04T11:35:50;99859.13;;;2.81;100.00
78845;BME280;68195;50.854;2.860;2023-12-04T11:38:18;99840.47;;;2.73;100.00
78845;BME280;68195;50.854;2.860;2023-12-04T11:40:50;99855.41;;;2.90;100.00
78845;BME280;68195;50.854;2.860;2023-12-04T11:43:25;99881.56;;;3.04;100.00
78845;BME280;68195;50.854;2.860;2023-12-04T11:46:09;99880.53;;;3.10;100.00
78845;BME280;68195;50.854;2.860;2023-12-04T11:48:39;99871.06;;;3.10;100.00
78845;BME280;68195;50.854;2.860;2023-12-04T11:51:06;99852.38;;;3.03;100.00
78845;BME280;68195;50.854;2.860;2023-12-04T11:53:38;99865.03;;;3.11;100.00
78845;BME280;68195;50.854;2.860;2023-12-04T11:56:12;99862.28;;;3.16;100.00
78845;BME280;68195;50.854;2.860;2023-12-04T11:58:46;99846.97;;;3.11;100.00
78845;BME280;68195;50.854;2.860;2023-12-04T12:01:17;99847.72;;;3.13;100.00
78845;BME280;68195;50.854;2.860;2023-12-04T12:03:43;99816.41;;;2.99;100.00
78845;BME280;68195;50.854;2.860;2023-12-04T12:06:09;99831.25;;;3.17;100.00
78845;BME280;68195;50.854;2.860;2023-12-04T12:08:34;99832.78;;;3.23;100.00
78845;BME280;68195;50.854;2.860;2023-12-04T12:11:00;99820.94;;;3.17;100.00
78845;BME280;68195;50.854;2.860;2023-12-04T12:13:25;99788.47;;;3.12;100.00
78845;BME280;68195;50.854;2.860;2023-12-04T12:15:53;99705.97;;;2.61;100.00
78845;BME280;68195;50.854;2.860;2023-12-04T12:18:23;99780.72;;;3.12;100.00
78845;BME280;68195;50.854;2.860;2023-12-04T12:20:49;99778.06;;;3.13;100.00
78845;BME280;68195;50.854;2.860;2023-12-04T12:23:17;99776.06;;;3.21;100.00
78845;BME280;68195;50.854;2.860;2023-12-04T12:25:44;99809.03;;;3.38;100.00
78845;BME280;68195;50.854;2.860;2023-12-04T12:28:15;99779.34;;;3.26;100.00
78845;BME280;68195;50.854;2.860;2023-12-04T12:30:47;99757.56;;;3.10;100.00
78845;BME280;68195;50.854;2.860;2023-12-04T12:33:15;99745.56;;;3.09;100.00
78845;BME280;68195;50.854;2.860;2023-12-04T12:35:44;99734.38;;;3.08;100.00
78845;BME280;68195;50.854;2.860;2023-12-04T12:38:10;99740.16;;;3.15;100.00
78845;BME280;68195;50.854;2.860;2023-12-04T12:40:37;99756.75;;;3.33;100.00
78845;BME280;68195;50.854;2.860;2023-12-04T12:43:04;99767.75;;;3.38;100.00
78845;BME280;68195;50.854;2.860;2023-12-04T12:45:41;99749.84;;;3.34;100.00
78845;BME280;68195;50.854;2.860;2023-12-04T12:48:10;99738.78;;;3.30;100.00
78845;BME280;68195;50.854;2.860;2023-12-04T12:50:38;99745.50;;;3.34;100.00